Latest Weather Observations for Troughton Island

IDW60801

Issued at 5:14 pm WST Friday 19 December 2014 (issued every 30 minutes, with the page automatically refreshed every 10 minutes)

About weather observations | Map of weather stations | Latest weather observations for WA | Other Formats
Station Details ID: 001007 Name: TROUGHTON ISLAND Lat: -13.75 Lon: 126.15 Height: 6.0 m
Data from the previous 72 hours. | See also: Recent months at Troughton Island
Date/Time
WST
Temp
°C
App
Temp
°C
Dew
Point
Rel
Hum
%
Delta-T
°C
Wind Press
QNH
hPa
Press
MSL
hPa
Rain
since 9 am
mm
Dir
 
Spd
km/h
Gust
km/h
Spd
kts
Gust
kts
19/05:00pm 30.5 37.9 29.8 96 0.5 W 13 15 7 8 1008.2 - 0.0
19/04:30pm 30.8 37.3 29.7 94 0.8 W 17 19 9 10 1007.9 - 0.0
19/04:00pm 31.3 37.9 29.8 92 1.1 NW 17 20 9 11 1007.2 - 0.0
19/03:30pm 31.5 38.1 29.8 91 1.3 NW 17 22 9 12 1007.0 - 0.0
19/03:00pm 32.0 38.6 29.8 88 1.6 NNW 17 20 9 11 1007.6 1007.5 0.0
19/02:30pm 32.3 39.2 30.1 88 1.6 NNW 17 22 9 12 1007.4 - 0.0
19/02:00pm 31.7 38.8 29.9 90 1.3 N 15 20 8 11 1008.2 - 0.0
19/01:30pm 32.2 39.6 30.3 90 1.4 NNE 15 19 8 10 1008.9 - 0.0
19/01:00pm 31.4 38.5 29.4 89 1.5 NNE 13 17 7 9 1009.4 - 0.0
19/12:30pm 31.9 39.4 29.5 87 1.8 NE 11 15 6 8 1009.9 - 0.0
19/12:00pm 32.2 39.8 29.6 86 1.9 NE 11 19 6 10 1010.0 1009.9 0.0
19/10:30am 31.6 38.9 29.2 87 1.8 ENE 11 15 6 8 1010.6 - 0.0
19/10:00am 31.8 39.6 29.4 87 1.8 E 9 13 5 7 1010.7 - 0.0
19/09:30am 31.7 39.7 29.1 86 1.9 E 7 13 4 7 1010.7 - 0.0
19/09:00am 31.0 38.7 29.2 90 1.3 ESE 9 13 5 7 1010.9 1010.8 0.0
19/08:30am 31.4 38.7 29.2 88 1.6 ESE 11 13 6 7 1010.7 - 0.0
19/08:00am 31.1 38.6 29.5 91 1.2 E 11 15 6 8 1010.6 - 0.0
19/07:30am 31.1 38.2 29.5 91 1.2 E 13 15 7 8 1010.4 - 0.0
19/07:00am 30.9 37.7 29.1 90 1.3 E 13 19 7 10 1010.2 - 0.0
19/06:30am 30.2 36.6 28.0 88 1.6 ENE 11 15 6 8 1009.9 - 0.0
19/06:00am 30.0 35.9 27.8 88 1.6 E 13 15 7 8 1009.5 1009.4 0.0
19/05:30am 29.4 35.0 27.4 89 1.4 ESE 13 17 7 9 1009.0 - 0.0
19/05:00am 29.1 34.4 27.5 91 1.2 E 15 19 8 10 1008.4 - 0.0
19/04:30am 29.3 34.1 27.9 92 1.0 ESE 19 22 10 12 1008.3 - 0.0
19/04:00am 29.0 35.1 27.6 92 1.0 SE 11 13 6 7 1008.0 - 0.0
19/03:30am 28.6 34.9 27.9 96 0.5 SSE 11 13 6 7 1007.7 - 0.0
19/03:00am 28.9 34.0 27.3 91 1.2 SSE 15 20 8 11 1008.1 1008.0 0.0
19/02:30am 28.9 33.1 27.3 91 1.2 SSE 20 24 11 13 1008.1 - 0.0
19/02:00am 28.6 33.6 27.7 95 0.7 SSE 17 20 9 11 1008.4 - 0.0
19/01:30am 28.8 33.0 27.4 92 1.0 SSE 20 26 11 14 1008.8 - 0.0
19/01:00am 28.8 33.8 27.7 94 0.8 SE 17 19 9 10 1009.2 - 0.0
19/12:30am 28.7 33.3 27.6 94 0.8 SE 19 24 10 13 1009.3 - 0.0
19/12:00am 28.9 31.9 27.8 94 0.8 SE 28 33 15 18 1009.9 1009.8 0.0
 
Date/Time
WST
Temp
°C
App
Temp
°C
Dew
Point
Rel
Hum
%
Delta-T
°C
Wind Press
QNH
hPa
Press
MSL
hPa
Rain
since 9 am
mm
Dir
 
Spd
km/h
Gust
km/h
Spd
kts
Gust
kts
18/11:30pm 28.8 29.4 27.4 92 1.0 SSE 39 48 21 26 1010.3 - 0.0
18/11:00pm 29.6 30.3 28.0 91 1.2 SSE 41 52 22 28 1010.6 - 0.0
18/10:55pm 29.7 31.8 28.4 93 1.0 S 35 52 19 28 1010.5 - 0.0
18/10:30pm 30.6 - 31.3 - - SW 26 33 14 18 1010.8 - 0.0
18/10:00pm 30.6 - 31.8 - - WSW 26 30 14 16 1010.8 - 0.0
18/09:30pm 30.5 - 31.5 - - W 22 28 12 15 1010.5 - 0.0
18/09:00pm 30.6 - 31.6 - - W 22 26 12 14 1010.6 1010.5 0.0
18/08:30pm 30.6 - 31.3 - - W 22 26 12 14 1010.0 - 0.0
18/08:00pm 30.6 - 31.1 - - W 22 24 12 13 1009.4 - 0.0
18/07:30pm 30.6 - 30.9 - - W 19 22 10 12 1008.7 - 0.0
18/07:00pm 30.6 37.9 30.6 100 0.0 WNW 17 20 9 11 1008.4 - 0.0
18/06:30pm 30.7 37.5 30.5 99 0.1 WNW 19 24 10 13 1008.0 - 0.0
18/06:00pm 30.9 37.4 30.4 97 0.4 WNW 20 24 11 13 1007.8 1007.7 0.0
18/05:30pm 31.2 38.2 31.0 99 0.2 WNW 20 24 11 13 1007.1 - 0.0
18/05:00pm 32.0 39.1 31.1 95 0.7 WNW 20 24 11 13 1006.7 - 0.0
18/04:30pm 32.4 39.5 30.9 92 1.1 WNW 19 20 10 11 1006.6 - 0.0
18/04:00pm 32.5 39.6 30.8 91 1.3 WNW 19 22 10 12 1006.3 - 0.0
18/03:30pm 32.8 40.1 31.3 92 1.1 WNW 20 24 11 13 1006.1 - 0.0
18/03:00pm 33.1 40.3 31.0 89 1.6 W 19 22 10 12 1006.4 - 0.0
18/02:30pm 33.0 39.9 30.9 89 1.6 WNW 20 26 11 14 1006.8 - 0.0
18/02:00pm 33.6 40.2 30.5 84 2.3 W 20 24 11 13 1007.1 - 0.0
18/01:30pm 33.8 40.9 30.9 85 2.2 W 19 22 10 12 1007.5 - 0.0
18/01:00pm 33.3 40.6 30.6 86 2.0 W 17 20 9 11 1008.0 - 0.0
18/12:30pm 33.0 40.2 30.5 87 1.9 W 17 20 9 11 1008.4 - 0.0
18/12:00pm 33.2 40.6 30.3 85 2.2 WSW 15 19 8 10 1009.1 1009.0 0.0
18/11:30am 33.2 40.7 30.9 88 1.7 WSW 17 20 9 11 1009.4 - 0.0
18/11:00am 33.0 39.6 30.5 87 1.9 WSW 20 24 11 13 1009.7 - 0.0
18/10:30am 33.1 40.1 31.0 89 1.6 WSW 20 24 11 13 1009.8 - 0.0
18/10:00am 32.8 40.3 30.9 90 1.4 WSW 17 19 9 10 1009.9 - 0.0
18/09:30am 32.5 40.3 30.8 91 1.3 SW 15 20 8 11 1010.2 - 0.0
18/09:00am 32.4 40.1 31.1 93 1.0 SW 17 20 9 11 1010.4 1010.3 0.0
18/08:30am 31.9 39.0 30.8 94 0.8 SW 19 22 10 12 1010.4 - 0.0
18/08:00am 32.0 38.6 30.5 92 1.1 WSW 20 24 11 13 1010.0 - 0.0
18/07:30am 31.8 39.1 31.1 96 0.5 WSW 19 22 10 12 1009.7 - 0.0
18/07:00am 31.2 37.8 30.5 96 0.5 WSW 20 24 11 13 1009.6 - 0.0
18/06:30am 30.6 37.5 30.6 100 0.0 W 19 20 10 11 1009.1 - 0.0
18/06:00am 30.0 - 30.3 - - W 20 22 11 12 1008.6 1008.5 0.0
18/05:30am 29.9 - 30.6 - - WSW 22 26 12 14 1008.2 - 0.0
18/05:00am 29.7 - 30.2 - - WSW 22 28 12 15 1007.7 - 0.0
18/04:30am 29.6 - 29.8 - - W 20 24 11 13 1007.4 - 0.0
18/04:00am 29.7 - 30.4 - - WSW 19 22 10 12 1007.1 - 0.0
18/03:30am 29.7 - 30.4 - - WSW 22 26 12 14 1007.1 - 0.0
18/03:00am 29.7 - 30.9 - - W 20 26 11 14 1006.7 1006.6 0.0
18/02:30am 29.6 - 30.8 - - W 19 22 10 12 1006.4 - 0.0
18/02:00am 29.6 - 30.5 - - W 19 22 10 12 1006.3 - 0.0
18/01:30am 29.7 - 30.2 - - W 20 24 11 13 1006.3 - 0.0
18/01:00am 29.9 - 30.4 - - WSW 20 22 11 12 1006.7 - 0.0
18/12:30am 29.8 - 30.8 - - W 20 26 11 14 1006.8 - 0.0
18/12:00am 29.8 - 30.8 - - W 20 24 11 13 1006.8 1006.7 0.0
 
Date/Time
WST
Temp
°C
App
Temp
°C
Dew
Point
Rel
Hum
%
Delta-T
°C
Wind Press
QNH
hPa
Press
MSL
hPa
Rain
since 9 am
mm
Dir
 
Spd
km/h
Gust
km/h
Spd
kts
Gust
kts
17/11:30pm 29.9 - 30.6 - - W 19 22 10 12 1007.1 - 0.0
17/11:00pm 29.9 - 30.6 - - W 17 19 9 10 1007.4 - 0.0
17/10:30pm 29.9 - 30.6 - - W 17 19 9 10 1007.7 - 0.0
17/10:00pm 30.0 - 30.5 - - W 15 17 8 9 1008.0 - 0.0
17/09:30pm 30.2 37.0 30.0 99 0.1 W 17 19 9 10 1008.0 - 0.0
17/09:00pm 30.2 37.5 30.2 100 0.0 W 15 17 8 9 1007.8 1007.7 0.0
17/08:30pm 30.3 - 30.8 - - W 17 20 9 11 1007.8 - 0.0
17/08:00pm 30.4 37.5 30.4 100 0.0 W 17 20 9 11 1007.3 - 0.0
17/07:30pm 30.5 - 30.7 - - W 20 24 11 13 1007.1 - 0.0
17/07:00pm 30.6 36.9 30.6 100 0.0 WSW 22 24 12 13 1007.1 - 0.0
17/06:30pm 30.7 36.7 30.2 97 0.4 WSW 22 26 12 14 1006.8 - 0.0
17/06:00pm 30.8 36.9 30.8 100 0.0 WSW 24 30 13 16 1006.7 1006.6 0.0
17/05:30pm 31.0 - 31.2 - - WSW 26 32 14 17 1006.5 - 0.0
17/05:00pm 31.2 36.5 30.8 98 0.3 W 28 33 15 18 1006.1 - 0.0
17/04:30pm 32.1 37.8 31.2 95 0.7 W 28 33 15 18 1005.9 - 0.0
17/04:00pm 32.5 39.1 31.4 94 0.8 W 24 28 13 15 1005.7 - 0.0
17/03:30pm 32.7 39.3 31.4 93 1.0 WNW 24 28 13 15 1005.4 - 0.0
17/03:00pm 32.9 40.1 31.6 93 1.0 WNW 22 28 12 15 1005.0 1004.9 0.0
17/02:30pm 33.3 40.3 31.8 92 1.1 W 24 28 13 15 1004.8 - 0.0
17/02:00pm 33.3 40.4 32.0 93 1.0 WNW 24 28 13 15 1005.3 - 0.0
17/01:30pm 32.9 40.3 31.4 92 1.1 WNW 20 24 11 13 1005.4 - 0.0
17/01:00pm 33.2 40.6 31.9 93 1.0 W 22 26 12 14 1006.2 - 0.0
17/12:30pm 32.7 39.9 31.6 94 0.8 W 22 28 12 15 1006.8 - 0.0
17/12:00pm 32.8 40.8 31.9 95 0.7 W 19 20 10 11 1007.2 1007.1 0.0
17/11:30am 32.5 40.6 32.0 97 0.4 W 19 22 10 12 1007.4 - 0.0
17/11:00am 32.0 40.4 31.5 97 0.4 W 15 17 8 9 1007.7 - 0.0
17/10:30am 31.7 39.9 30.8 95 0.7 W 13 15 7 8 1008.1 - 0.0
17/10:00am 32.4 41.2 31.5 95 0.7 W 13 17 7 9 1008.4 - 0.0
17/09:30am 31.7 40.4 31.0 96 0.5 WSW 11 13 6 7 1008.5 - 0.0
17/09:00am 31.5 39.9 30.6 95 0.7 WSW 11 13 6 7 1008.7 1008.6 0.0
17/08:30am 31.0 38.9 30.5 97 0.4 WSW 13 15 7 8 1008.3 - 0.0
17/08:00am 30.8 38.7 30.4 98 0.3 SW 13 17 7 9 1008.3 - 0.0
17/07:30am 30.5 38.3 30.3 99 0.1 SSW 13 15 7 8 1008.1 - 0.0
17/07:00am 30.1 37.2 29.9 99 0.1 SSW 15 20 8 11 1007.8 - 0.0
17/06:30am 29.8 36.5 29.4 98 0.3 SSW 15 17 8 9 1007.3 - 0.0
17/06:00am 29.6 36.1 29.1 97 0.4 SSW 15 19 8 10 1006.9 1006.8 0.0
17/05:30am 29.3 34.6 28.6 96 0.5 S 19 20 10 11 1006.3 - 0.0
17/05:00am 29.4 34.6 28.7 96 0.5 SSW 20 26 11 14 1006.1 - 0.0
17/04:30am 29.4 34.3 28.3 94 0.8 SW 20 24 11 13 1005.6 - 0.0
17/04:00am 29.2 34.8 29.2 100 0.0 SW 20 24 11 13 1005.4 - 0.0
17/03:30am 29.2 - 29.4 - - WSW 20 24 11 13 1005.3 - 0.0
17/03:00am 29.3 34.4 28.6 96 0.5 SW 20 26 11 14 1005.3 1005.2 0.0
17/02:30am 29.3 34.8 29.1 99 0.1 WSW 20 24 11 13 1005.6 - 0.0
17/02:00am 29.4 - 29.9 - - WSW 20 24 11 13 1005.3 - 0.0
17/01:30am 29.2 - 30.4 - - WSW 17 20 9 11 1005.2 - 0.0
17/01:00am 29.1 - 30.1 - - SW 17 19 9 10 1005.5 - 0.0
17/12:30am 29.1 - 29.3 - - SW 20 24 11 13 1005.9 - 0.0
17/12:00am 29.3 33.3 28.6 96 0.5 SW 26 32 14 17 1006.2 1006.1 0.0
 
Date/Time
WST
Temp
°C
App
Temp
°C
Dew
Point
Rel
Hum
%
Delta-T
°C
Wind Press
QNH
hPa
Press
MSL
hPa
Rain
since 9 am
mm
Dir
 
Spd
km/h
Gust
km/h
Spd
kts
Gust
kts
16/11:30pm 29.3 31.7 28.0 93 0.9 SSW 32 37 17 20 1006.5 - 0.0
16/11:00pm 29.5 33.1 29.1 98 0.3 SW 30 35 16 19 1007.1 - 0.0
16/10:30pm 29.6 32.5 29.4 99 0.1 WSW 35 43 19 23 1007.7 - 0.0
16/10:00pm 30.3 - 31.5 - - WSW 35 41 19 22 1008.0 - 0.0
16/09:30pm 30.3 - 31.5 - - W 30 35 16 19 1008.1 - 0.0
16/09:00pm 30.4 - 31.4 - - W 32 37 17 20 1008.4 1008.3 0.0
16/08:30pm 30.4 - 31.3 - - WSW 30 33 16 18 1008.1 - 0.0
16/08:00pm 30.4 - 31.4 - - W 30 33 16 18 1008.0 - 0.0
16/07:30pm 30.5 - 31.7 - - W 28 33 15 18 1007.5 - 0.0
16/07:00pm 30.5 - 31.4 - - W 28 33 15 18 1007.3 - 0.0
16/06:30pm 30.6 - 31.1 - - W 28 33 15 18 1006.1 - 0.0
16/06:00pm 30.6 - 30.9 - - W 28 33 15 18 1005.2 1005.1 0.0
16/05:30pm 30.8 - 31.3 - - W 26 30 14 16 1004.8 - 0.0

Other Formats:

Comma delimited format used in spreadsheet applications
http://www.bom.gov.au/fwo/IDW60801/IDW60801.94102.axf

JavaScript Object Notation format (JSON) in row-major order
http://www.bom.gov.au/fwo/IDW60801/IDW60801.94102.json